Time;durP1;ratioP1;P1;durP2;ratioP2;P2;SDS_P1;SDS_P2;PMS_P1;PMS_P2;Temp;Humidity;BMP_temperature;BMP_pressure;BME280_temperature;BME280_humidity;BME280_pressure;Samples;Min_cycle;Max_cycle;Signal;HPM_P1;HPM_P2
2022/03/09 00:00:26;;;;;;;28.92;15.40;;;;;;;-2.40;59.22;100711.75;5026853;28;20041;-56
2022/03/09 00:02:57;;;;;;;32.90;15.68;;;;;;;-2.21;59.13;100718.53;5030446;28;20064;-56
2022/03/09 00:05:28;;;;;;;27.15;14.50;;;;;;;-2.00;58.81;100713.44;5027147;28;20069;-55
2022/03/09 00:07:59;;;;;;;36.58;17.20;;;;;;;-1.84;58.63;100695.34;5028645;28;20240;-56
2022/03/09 00:10:29;;;;;;;39.72;17.80;;;;;;;-1.69;58.39;100699.34;5035673;28;20056;-56
2022/03/09 00:13:00;;;;;;;33.33;16.42;;;;;;;-1.54;58.08;100697.38;5039165;28;20045;-58
2022/03/09 00:15:33;;;;;;;39.60;18.58;;;;;;;-1.49;58.02;100690.72;5026606;28;20089;-56
2022/03/09 00:18:03;;;;;;;35.78;16.73;;;;;;;-1.24;58.13;100699.38;5029453;28;20425;-56
2022/03/09 00:20:34;;;;;;;35.20;18.02;;;;;;;-1.13;57.92;100693.81;5031951;28;20063;-55
2022/03/09 00:23:05;;;;;;;37.58;17.67;;;;;;;-1.56;57.73;100594.78;5027096;28;20046;-56
2022/03/09 00:25:35;;;;;;;41.80;18.15;;;;;;;-0.75;58.02;100690.91;5027396;28;20062;-57
2022/03/09 00:28:06;;;;;;;30.35;16.25;;;;;;;-0.69;57.80;100680.88;5028105;28;20072;-56
2022/03/09 00:30:39;;;;;;;29.55;15.18;;;;;;;-0.54;57.94;100701.97;5021665;28;20378;-57
2022/03/09 00:33:09;;;;;;;29.95;14.90;;;;;;;-0.46;58.56;100690.25;5018805;28;20057;-58
2022/03/09 00:35:42;;;;;;;36.00;17.70;;;;;;;-0.43;58.54;100680.09;5018534;28;20053;-56
2022/03/09 00:38:13;;;;;;;42.58;18.17;;;;;;;-0.33;58.57;100680.41;5018724;28;20062;-56
2022/03/09 00:40:44;;;;;;;38.08;18.25;;;;;;;-0.15;58.53;100695.56;5018390;28;20392;-57
2022/03/09 00:43:15;;;;;;;41.85;19.88;;;;;;;-0.04;58.99;100705.41;5018288;28;20064;-57
2022/03/09 00:45:47;;;;;;;44.22;19.17;;;;;;;0.07;58.82;100703.16;5018648;28;20081;-56
2022/03/09 00:48:18;;;;;;;39.20;18.40;;;;;;;0.21;58.86;100701.06;5027624;28;20356;-58
2022/03/09 00:50:49;;;;;;;37.80;18.77;;;;;;;0.26;58.64;100699.53;5030217;28;20058;-58
2022/03/09 00:53:19;;;;;;;31.85;17.70;;;;;;;0.05;58.54;100652.56;5025833;28;20053;-58
2022/03/09 00:55:50;;;;;;;37.03;18.88;;;;;;;0.43;58.03;100692.34;5028260;28;20045;-60
2022/03/09 00:58:20;;;;;;;40.88;19.45;;;;;;;0.38;58.09;100684.50;5027522;28;20065;-57
2022/03/09 01:00:53;;;;;;;34.65;18.67;;;;;;;0.60;57.77;100692.84;5020105;28;20065;-57
2022/03/09 01:03:24;;;;;;;46.75;21.17;;;;;;;0.75;57.69;100701.06;5024152;28;20376;-57
2022/03/09 01:05:55;;;;;;;53.72;24.02;;;;;;;0.80;57.49;100699.50;5024581;28;20100;-57
2022/03/09 01:08:26;;;;;;;50.50;25.00;;;;;;;0.88;57.23;100696.28;5024035;28;20276;-58
2022/03/09 01:10:56;;;;;;;47.95;24.42;;;;;;;0.97;57.09;100701.69;5024842;28;20065;-57
2022/03/09 01:13:27;;;;;;;50.45;24.48;;;;;;;1.08;57.06;100706.31;5024289;28;20068;-57
2022/03/09 01:16:00;;;;;;;49.10;24.15;;;;;;;1.23;56.97;100694.72;5024681;28;20061;-57
2022/03/09 01:18:31;;;;;;;44.13;22.40;;;;;;;1.40;57.19;100695.19;5024097;28;20120;-58
2022/03/09 01:21:02;;;;;;;43.80;20.90;;;;;;;1.54;57.26;100686.13;5024170;28;20075;-57
2022/03/09 01:23:33;;;;;;;36.38;16.58;;;;;;;1.58;56.99;100698.28;5024066;28;20419;-58
2022/03/09 01:26:04;;;;;;;37.47;16.90;;;;;;;1.40;57.59;100661.72;5024228;28;20468;-58
2022/03/09 01:28:36;;;;;;;29.25;15.30;;;;;;;1.77;57.78;100693.59;5024214;28;20057;-58
2022/03/09 01:31:08;;;;;;;26.88;12.93;;;;;;;1.69;57.15;100670.22;5023966;28;20046;-57
2022/03/09 01:33:39;;;;;;;31.75;15.20;;;;;;;1.95;57.59;100683.78;5024176;28;20059;-57
2022/03/09 01:36:10;;;;;;;29.30;13.57;;;;;;;2.11;57.29;100685.91;5024022;28;20411;-58
2022/03/09 01:38:40;;;;;;;24.02;10.82;;;;;;;2.25;57.20;100687.97;5023926;28;20049;-57
2022/03/09 01:41:11;;;;;;;16.13;8.27;;;;;;;2.34;56.33;100688.16;5023882;28;20299;-57
2022/03/09 01:43:42;;;;;;;17.67;7.97;;;;;;;2.49;56.68;100678.19;5023528;28;20061;-57
2022/03/09 01:46:15;;;;;;;16.20;8.05;;;;;;;2.66;56.55;100677.72;5023411;28;20042;-58
2022/03/09 01:48:45;;;;;;;18.45;8.25;;;;;;;3.00;56.49;100677.63;5023555;28;20100;-57
2022/03/09 01:51:17;;;;;;;17.90;8.85;;;;;;;3.57;55.76;100680.44;5023182;28;20099;-58
2022/03/09 01:53:48;;;;;;;17.23;8.57;;;;;;;4.06;54.55;100671.84;5023349;28;20056;-57
2022/03/09 01:56:19;;;;;;;15.98;8.02;;;;;;;4.52;53.61;100674.28;5023112;28;20352;-58
2022/03/09 01:58:50;;;;;;;16.42;8.27;;;;;;;4.72;52.88;100675.44;5023448;28;20053;-59
2022/03/09 02:01:22;;;;;;;22.02;7.43;;;;;;;4.72;52.76;100670.28;5023128;28;20449;-58
2022/03/09 02:03:53;;;;;;;18.38;7.45;;;;;;;4.52;52.13;100667.41;5022899;28;20134;-57
2022/03/09 02:06:25;;;;;;;14.18;7.20;;;;;;;4.24;52.72;100624.72;5024142;28;20115;-58
2022/03/09 02:11:44;;;;;;;12.95;6.82;;;;;;;4.41;52.66;100653.41;5023804;28;20430;-58
2022/03/09 02:14:28;;;;;;;13.70;6.70;;;;;;;3.89;52.32;100586.25;5023623;28;20093;-57
2022/03/09 02:17:03;;;;;;;13.05;6.43;;;;;;;4.39;52.88;100670.63;5023898;28;20056;-57
2022/03/09 02:19:34;;;;;;;10.75;5.93;;;;;;;4.46;52.34;100667.28;5023648;28;20068;-57
2022/03/09 02:22:08;;;;;;;10.85;5.07;;;;;;;4.56;51.17;100662.25;5024003;28;20076;-58
2022/03/09 02:24:41;;;;;;;11.40;5.63;;;;;;;4.80;50.29;100666.91;5027069;28;20115;-58
2022/03/09 02:27:12;;;;;;;10.95;5.38;;;;;;;5.01;48.50;100667.19;5027456;28;20041;-58
2022/03/09 02:29:43;;;;;;;12.52;5.68;;;;;;;5.03;48.97;100668.06;5026763;28;20340;-57
2022/03/09 02:32:13;;;;;;;18.30;7.97;;;;;;;5.01;49.68;100662.00;5027441;28;20057;-57
2022/03/09 02:34:44;;;;;;;16.25;6.95;;;;;;;4.49;49.77;100594.00;5027260;28;20410;-58
2022/03/09 02:37:15;;;;;;;11.27;6.43;;;;;;;4.96;49.87;100668.84;5027310;28;20780;-57
2022/03/09 02:39:47;;;;;;;10.80;5.75;;;;;;;4.96;49.43;100658.47;5027113;28;20060;-57
2022/03/09 02:42:18;;;;;;;12.52;4.93;;;;;;;4.73;49.69;100666.81;5027530;28;20557;-58
2022/03/09 02:44:48;;;;;;;10.02;4.95;;;;;;;4.53;49.51;100658.78;5028046;28;20049;-58
2022/03/09 02:47:19;;;;;;;7.57;4.50;;;;;;;4.47;48.48;100660.41;5027804;28;20061;-58
2022/03/09 02:49:50;;;;;;;12.65;6.53;;;;;;;4.61;48.43;100658.88;5026889;28;20137;-60
2022/03/09 02:52:20;;;;;;;13.07;6.00;;;;;;;4.69;48.26;100659.88;5027210;28;20083;-58
2022/03/09 02:54:53;;;;;;;12.25;5.10;;;;;;;4.80;48.57;100661.75;5026927;28;20386;-60
2022/03/09 02:57:24;;;;;;;10.55;5.13;;;;;;;4.79;48.06;100659.97;5027194;28;20041;-59
2022/03/09 02:59:54;;;;;;;14.43;6.25;;;;;;;4.79;48.78;100654.81;5027049;28;20053;-58
2022/03/09 03:02:25;;;;;;;9.45;5.13;;;;;;;4.85;47.47;100654.91;5027085;28;20236;-59
2022/03/09 03:04:56;;;;;;;8.43;5.18;;;;;;;4.56;48.11;100632.06;5027386;28;20353;-58
2022/03/09 03:07:26;;;;;;;7.75;4.38;;;;;;;4.16;47.74;100646.13;5027116;28;20050;-58
2022/03/09 03:09:59;;;;;;;9.48;4.20;;;;;;;3.71;46.94;100627.28;5026787;28;20360;-58
2022/03/09 03:12:29;;;;;;;8.38;4.57;;;;;;;3.49;46.55;100635.50;5026748;28;20057;-58
2022/03/09 03:15:00;;;;;;;8.45;4.68;;;;;;;3.17;46.33;100633.16;5026908;28;20056;-57
2022/03/09 03:17:31;;;;;;;6.45;4.25;;;;;;;3.10;45.73;100633.91;5026690;28;20388;-57
2022/03/09 03:20:01;;;;;;;8.05;4.25;;;;;;;2.83;46.79;100627.34;5026420;28;20116;-58
2022/03/09 03:22:32;;;;;;;7.88;4.80;;;;;;;3.00;46.38;100632.88;5026654;28;20049;-57
2022/03/09 03:25:05;;;;;;;7.22;3.60;;;;;;;3.14;44.75;100622.78;5026489;28;20057;-59
2022/03/09 03:27:35;;;;;;;7.28;3.53;;;;;;;3.50;43.15;100621.75;5026468;28;20055;-57
2022/03/09 03:30:07;;;;;;;6.50;4.22;;;;;;;4.00;42.84;100621.75;5026308;28;20127;-57
2022/03/09 03:32:38;;;;;;;10.48;3.55;;;;;;;3.87;42.73;100556.91;5025951;28;20267;-58
2022/03/09 03:35:10;;;;;;;6.90;4.00;;;;;;;4.28;41.37;100598.03;5025931;28;20124;-58
2022/03/09 03:37:42;;;;;;;6.10;3.58;;;;;;;4.11;40.55;100576.22;5026282;28;20057;-57
2022/03/09 03:40:15;;;;;;;5.90;3.65;;;;;;;4.36;42.21;100610.22;5026134;28;20243;-57
2022/03/09 03:42:45;;;;;;;9.60;4.00;;;;;;;4.25;41.62;100610.06;5026383;28;20062;-58
2022/03/09 03:45:16;;;;;;;6.70;4.03;;;;;;;4.15;40.30;100603.88;5026425;28;20057;-57
2022/03/09 03:47:47;;;;;;;6.03;3.70;;;;;;;4.07;41.17;100605.50;5026544;28;20054;-57
2022/03/09 03:50:18;;;;;;;8.32;3.22;;;;;;;3.93;40.20;100613.00;5026093;28;20046;-58
2022/03/09 03:52:49;;;;;;;8.23;3.30;;;;;;;4.05;40.04;100596.84;5025889;28;20050;-58
2022/03/09 03:55:21;;;;;;;6.15;3.55;;;;;;;4.24;40.42;100604.03;5026090;28;20091;-58
2022/03/09 03:57:52;;;;;;;8.63;4.15;;;;;;;3.81;41.46;100603.34;5025931;28;20062;-58
2022/03/09 04:00:23;;;;;;;7.20;4.18;;;;;;;3.26;42.04;100540.38;5026064;28;20054;-57
2022/03/09 04:02:54;;;;;;;6.80;3.60;;;;;;;3.80;41.08;100600.75;5025763;28;20046;-58
2022/03/09 04:05:25;;;;;;;6.22;3.58;;;;;;;3.57;40.92;100602.91;5025483;28;20053;-58
2022/03/09 04:07:56;;;;;;;6.38;3.58;;;;;;;3.54;41.03;100602.88;5025678;28;20064;-57
2022/03/09 04:10:28;;;;;;;9.27;3.65;;;;;;;3.65;41.32;100596.19;5025423;28;20057;-57
2022/03/09 04:13:03;;;;;;;12.82;4.75;;;;;;;3.83;40.94;100596.47;5025717;28;20064;-57
2022/03/09 04:15:34;;;;;;;8.85;3.60;;;;;;;4.02;40.89;100595.06;5025519;28;20053;-57
2022/03/09 04:18:06;;;;;;;8.07;4.35;;;;;;;4.04;40.46;100589.91;5025617;28;20049;-58
2022/03/09 04:20:37;;;;;;;5.45;3.33;;;;;;;4.23;39.14;100589.34;5025137;28;20042;-57
2022/03/09 04:23:10;;;;;;;6.13;3.53;;;;;;;4.30;40.53;100591.16;5025670;28;20042;-58
2022/03/09 04:25:42;;;;;;;6.50;4.10;;;;;;;4.36;40.21;100597.28;5025364;28;20290;-57
2022/03/09 04:28:13;;;;;;;8.57;3.75;;;;;;;4.37;39.53;100593.84;5025560;28;20062;-56
2022/03/09 04:30:44;;;;;;;8.35;3.60;;;;;;;4.38;40.53;100595.59;5025445;28;20364;-58
2022/03/09 04:33:14;;;;;;;7.43;3.88;;;;;;;4.31;40.75;100587.72;5025229;28;20105;-57
2022/03/09 04:35:45;;;;;;;6.47;3.40;;;;;;;4.25;40.25;100585.06;5025061;28;20773;-57
2022/03/09 04:38:16;;;;;;;7.57;3.97;;;;;;;4.19;39.98;100584.09;5025404;28;20066;-57
2022/03/09 04:40:48;;;;;;;5.65;3.53;;;;;;;4.20;41.26;100594.47;5024949;28;20113;-57
2022/03/09 04:43:19;;;;;;;5.80;3.65;;;;;;;4.19;40.86;100595.31;5025780;28;20054;-57
2022/03/09 04:45:49;;;;;;;6.10;3.30;;;;;;;4.10;40.08;100600.34;5024075;28;20084;-57
2022/03/09 04:48:20;;;;;;;7.63;3.47;;;;;;;3.78;40.54;100598.13;5025445;28;20221;-57
2022/03/09 04:50:51;;;;;;;8.80;3.90;;;;;;;3.78;40.70;100598.13;5024782;28;20113;-57
2022/03/09 04:53:21;;;;;;;9.35;4.03;;;;;;;3.85;40.16;100599.97;5025255;28;20113;-57
2022/03/09 04:55:54;;;;;;;9.63;4.10;;;;;;;3.75;41.09;100608.41;5025068;28;20105;-57
2022/03/09 04:58:25;;;;;;;5.15;3.63;;;;;;;3.63;40.90;100603.03;5024541;28;20136;-57
2022/03/09 05:00:56;;;;;;;8.50;3.80;;;;;;;3.54;41.00;100593.41;5024708;28;20120;-57
2022/03/09 05:03:27;;;;;;;6.68;3.50;;;;;;;3.59;40.65;100602.09;5025080;28;20049;-57
2022/03/09 05:05:57;;;;;;;5.10;3.13;;;;;;;3.66;39.29;100605.66;5024994;28;20080;-57
2022/03/09 05:08:29;;;;;;;9.43;4.80;;;;;;;3.59;39.37;100606.41;5024740;28;20058;-55
2022/03/09 05:11:01;;;;;;;9.02;4.07;;;;;;;3.81;39.86;100613.69;5024533;28;20068;-57
2022/03/09 05:13:35;;;;;;;16.08;5.85;;;;;;;4.02;40.41;100607.09;5024572;28;20100;-57
2022/03/09 05:16:06;;;;;;;7.82;3.90;;;;;;;4.04;39.15;100611.50;5023936;28;20077;-56
2022/03/09 05:18:40;;;;;;;6.15;3.85;;;;;;;3.95;38.21;100620.81;5024182;28;20449;-57
2022/03/09 05:21:11;;;;;;;12.32;3.63;;;;;;;3.48;41.00;100602.78;5024242;28;20067;-57
2022/03/09 05:23:42;;;;;;;8.50;4.03;;;;;;;3.69;41.85;100618.63;5024592;28;20045;-57
2022/03/09 05:26:14;;;;;;;6.50;4.07;;;;;;;3.62;41.59;100621.94;5024450;28;20054;-57
2022/03/09 05:28:45;;;;;;;7.22;3.50;;;;;;;3.18;41.67;100567.78;5024466;28;20128;-56
2022/03/09 05:31:16;;;;;;;10.18;3.85;;;;;;;3.31;42.08;100623.97;5024402;28;20271;-56
2022/03/09 05:33:47;;;;;;;10.60;4.07;;;;;;;3.19;42.20;100622.03;5024425;28;20069;-57
2022/03/09 05:36:17;;;;;;;8.93;4.35;;;;;;;3.07;42.67;100620.94;5024290;28;20069;-56
2022/03/09 05:38:48;;;;;;;9.32;4.55;;;;;;;3.26;43.03;100615.28;5024305;28;20148;-56
2022/03/09 05:41:21;;;;;;;7.68;3.85;;;;;;;3.45;43.39;100614.78;5024060;28;20121;-57
2022/03/09 05:43:52;;;;;;;11.38;4.38;;;;;;;3.74;42.37;100622.16;5024607;28;20817;-57
2022/03/09 05:46:23;;;;;;;10.27;4.60;;;;;;;3.82;40.87;100623.19;5024295;28;20053;-56
2022/03/09 05:48:54;;;;;;;9.63;3.72;;;;;;;3.75;41.18;100626.50;5024510;28;20264;-57
2022/03/09 05:51:25;;;;;;;5.95;3.33;;;;;;;3.76;40.73;100630.81;5024489;28;20076;-56
2022/03/09 05:53:55;;;;;;;9.43;4.30;;;;;;;3.59;41.32;100627.06;5023862;28;20404;-56
2022/03/09 05:56:27;;;;;;;9.50;4.15;;;;;;;3.35;41.59;100623.22;5024571;28;20308;-56
2022/03/09 05:58:58;;;;;;;10.48;4.00;;;;;;;3.18;41.48;100629.78;5029170;28;20053;-57
2022/03/09 06:01:29;;;;;;;7.93;3.50;;;;;;;3.08;42.26;100638.19;5028108;28;20050;-55
2022/03/09 06:04:01;;;;;;;8.15;3.53;;;;;;;3.06;42.28;100639.84;5028121;28;20068;-56
2022/03/09 06:06:31;;;;;;;8.15;3.90;;;;;;;2.89;42.55;100637.78;5027800;28;20279;-57
2022/03/09 06:09:02;;;;;;;9.65;3.80;;;;;;;2.84;42.12;100635.94;5028394;28;20042;-56
2022/03/09 06:11:34;;;;;;;6.95;3.90;;;;;;;2.57;42.72;100640.56;5027797;28;20347;-56
2022/03/09 06:14:05;;;;;;;6.97;3.85;;;;;;;2.43;42.72;100635.94;5028054;28;20152;-54
2022/03/09 06:16:36;;;;;;;6.45;4.13;;;;;;;2.37;44.07;100646.97;5026803;28;20084;-57
2022/03/09 06:19:07;;;;;;;11.23;3.97;;;;;;;2.46;43.40;100642.03;5027403;28;20048;-57
2022/03/09 06:21:37;;;;;;;11.63;4.35;;;;;;;2.58;44.30;100631.97;5027897;28;20065;-56
2022/03/09 06:24:08;;;;;;;9.25;3.97;;;;;;;2.71;44.69;100650.31;5027727;28;20069;-57
2022/03/09 06:26:41;;;;;;;7.32;3.90;;;;;;;2.70;44.69;100648.56;5027876;28;20362;-56
2022/03/09 06:29:12;;;;;;;8.68;4.15;;;;;;;2.66;45.00;100646.75;5027424;28;20085;-56
2022/03/09 06:31:44;;;;;;;6.97;3.58;;;;;;;2.41;43.45;100632.44;5027708;28;20053;-56
2022/03/09 06:34:15;;;;;;;6.68;4.05;;;;;;;1.71;44.56;100534.59;5028271;28;20113;-57
2022/03/09 06:36:46;;;;;;;7.18;3.72;;;;;;;2.15;42.90;100641.31;5027861;28;20140;-55
2022/03/09 06:39:17;;;;;;;7.00;4.18;;;;;;;2.05;43.92;100656.53;5027972;28;20801;-57
2022/03/09 06:41:49;;;;;;;5.70;3.10;;;;;;;1.94;44.80;100653.69;5026443;28;20390;-56
2022/03/09 06:44:22;;;;;;;5.82;3.30;;;;;;;1.89;44.70;100652.69;5025573;28;20049;-57
2022/03/09 06:46:53;;;;;;;6.30;3.55;;;;;;;1.54;43.50;100606.28;5026877;28;20228;-56
2022/03/09 06:49:24;;;;;;;14.15;6.97;;;;;;;1.93;44.48;100664.84;5026872;28;20084;-55
2022/03/09 06:51:54;;;;;;;14.88;8.52;;;;;;;1.85;45.09;100645.75;5026916;28;20096;-57
2022/03/09 06:54:25;;;;;;;14.35;7.55;;;;;;;1.92;45.61;100668.22;5027360;28;20061;-57
2022/03/09 06:56:57;;;;;;;9.05;4.70;;;;;;;1.90;45.13;100664.75;5027368;28;20430;-56
2022/03/09 06:59:28;;;;;;;7.35;4.07;;;;;;;1.81;45.67;100656.78;5027314;28;20053;-56
2022/03/09 07:01:59;;;;;;;27.73;13.50;;;;;;;1.81;45.69;100669.66;5026995;28;20142;-58
2022/03/09 07:04:31;;;;;;;21.05;9.60;;;;;;;1.66;45.56;100673.59;5026858;28;20268;-56
2022/03/09 07:07:01;;;;;;;12.70;5.68;;;;;;;1.53;45.20;100671.53;5026975;28;20085;-56
2022/03/09 07:09:32;;;;;;;9.65;4.57;;;;;;;1.27;46.17;100666.56;5025953;28;20066;-55
2022/03/09 07:12:05;;;;;;;8.40;4.43;;;;;;;1.19;46.79;100673.16;5026763;28;20085;-56
2022/03/09 07:14:36;;;;;;;10.77;3.80;;;;;;;1.17;46.03;100668.81;5026748;28;20100;-56
2022/03/09 07:17:06;;;;;;;7.82;3.85;;;;;;;1.18;46.90;100681.72;5026750;28;20041;-55
2022/03/09 07:19:37;;;;;;;6.88;3.67;;;;;;;1.17;46.31;100685.13;5026312;28;20398;-56
2022/03/09 07:22:08;;;;;;;8.48;4.10;;;;;;;1.21;47.71;100681.81;5027736;28;20045;-55
2022/03/09 07:24:39;;;;;;;8.95;3.90;;;;;;;1.21;47.30;100692.09;5026617;28;20095;-56
2022/03/09 07:27:11;;;;;;;7.90;3.60;;;;;;;1.23;46.13;100695.59;5026498;28;20112;-56
2022/03/09 07:29:42;;;;;;;6.80;3.38;;;;;;;1.22;46.70;100692.97;5026009;28;20061;-54
2022/03/09 07:32:14;;;;;;;7.68;3.63;;;;;;;1.19;45.99;100692.88;5025941;28;20548;-55
2022/03/09 07:35:05;;;;;;;17.42;4.60;;;;;;;1.05;46.56;100675.38;5026099;28;20268;-55
2022/03/09 07:37:36;;;;;;;8.55;3.65;;;;;;;1.10;46.49;100690.94;5025164;28;20072;-55
2022/03/09 07:40:09;;;;;;;8.15;4.53;;;;;;;1.10;46.98;100703.81;5026120;28;20110;-56
2022/03/09 07:42:42;;;;;;;7.25;3.58;;;;;;;1.10;47.84;100705.50;5025842;28;20081;-55
2022/03/09 07:45:13;;;;;;;7.22;4.00;;;;;;;1.01;48.12;100708.69;5025947;28;20050;-55
2022/03/09 07:47:43;;;;;;;6.03;3.80;;;;;;;0.94;48.04;100711.91;5025811;28;20069;-55
2022/03/09 07:50:14;;;;;;;11.98;4.40;;;;;;;0.88;48.38;100711.72;5026125;28;20382;-56
2022/03/09 07:52:45;;;;;;;10.07;4.20;;;;;;;0.79;48.62;100718.31;5025826;28;20314;-54
2022/03/09 07:55:16;;;;;;;7.47;4.03;;;;;;;0.61;48.86;100707.47;5025223;28;20050;-55
2022/03/09 07:57:49;;;;;;;15.13;7.00;;;;;;;0.63;49.91;100716.13;5025413;28;20085;-56
2022/03/09 08:00:20;;;;;;;14.05;6.03;;;;;;;0.58;50.45;100728.81;5025415;28;20060;-56
2022/03/09 08:02:50;;;;;;;13.02;6.35;;;;;;;0.55;50.97;100728.75;5025197;28;20119;-56
2022/03/09 08:05:40;;;;;;;12.25;4.32;;;;;;;0.55;50.45;100730.41;5025285;28;20076;-57
2022/03/09 08:08:10;;;;;;;8.32;4.45;;;;;;;0.22;50.17;100682.25;5024831;28;20080;-55
2022/03/09 08:10:41;;;;;;;9.73;4.75;;;;;;;0.46;50.63;100738.72;5025740;28;20060;-56
2022/03/09 08:13:13;;;;;;;7.78;4.10;;;;;;;0.39;51.36;100732.50;5024311;28;20068;-55
2022/03/09 08:15:44;;;;;;;8.70;4.50;;;;;;;0.30;50.61;100737.38;5025902;28;20063;-55
2022/03/09 08:18:15;;;;;;;7.70;4.07;;;;;;;0.29;50.34;100739.88;5025326;28;20222;-55
2022/03/09 08:20:45;;;;;;;10.95;6.60;;;;;;;0.23;51.82;100740.56;5024542;28;20045;-56
2022/03/09 08:23:16;;;;;;;22.23;10.80;;;;;;;0.17;51.80;100737.75;5025240;28;20053;-54
2022/03/09 08:25:47;;;;;;;17.30;7.20;;;;;;;0.09;51.56;100742.66;5025305;28;20122;-57
2022/03/09 08:28:19;;;;;;;11.88;5.40;;;;;;;-0.02;51.29;100739.72;5024356;28;20073;-54
2022/03/09 08:30:50;;;;;;;9.20;4.57;;;;;;;-0.15;51.44;100737.56;5023683;28;20058;-56
2022/03/09 08:33:21;;;;;;;15.32;4.88;;;;;;;-0.16;51.39;100735.81;5023965;28;20343;-57
2022/03/09 08:35:52;;;;;;;7.50;4.05;;;;;;;-0.19;52.32;100745.97;5023692;28;20073;-56
2022/03/09 08:38:23;;;;;;;13.63;5.53;;;;;;;-0.30;52.56;100753.31;5022794;28;20359;-58
2022/03/09 08:40:53;;;;;;;14.88;6.05;;;;;;;-0.39;53.41;100752.13;5024556;28;20053;-57
2022/03/09 08:43:26;;;;;;;18.70;5.95;;;;;;;-0.45;54.50;100756.22;5024488;28;20049;-57
2022/03/09 08:45:57;;;;;;;11.77;6.18;;;;;;;-0.48;54.06;100763.78;5025146;28;20060;-57
2022/03/09 08:48:27;;;;;;;45.10;17.35;;;;;;;-0.53;54.02;100759.31;5024894;28;20104;-57
2022/03/09 08:50:58;;;;;;;32.95;12.02;;;;;;;-0.48;54.00;100768.03;5025386;28;20075;-55
2022/03/09 08:53:29;;;;;;;23.92;11.32;;;;;;;-0.49;53.59;100767.16;5024638;28;20080;-54
2022/03/09 08:56:00;;;;;;;30.30;11.57;;;;;;;-0.53;54.12;100775.56;5025195;28;20344;-56
2022/03/09 08:58:33;;;;;;;18.98;7.90;;;;;;;-0.63;54.78;100773.50;5024924;28;20296;-55
2022/03/09 09:01:04;;;;;;;14.13;6.97;;;;;;;-0.76;56.55;100773.84;5024250;28;20081;-56
2022/03/09 09:03:35;;;;;;;19.13;9.23;;;;;;;-0.90;57.13;100776.78;5023210;28;20125;-59
2022/03/09 09:06:06;;;;;;;43.53;15.43;;;;;;;-1.06;57.47;100782.13;5023561;28;20046;-58
2022/03/09 09:08:37;;;;;;;47.92;19.08;;;;;;;-1.11;57.36;100786.22;5024080;28;20065;-59
2022/03/09 09:11:08;;;;;;;40.58;17.40;;;;;;;-1.19;58.32;100795.31;5024558;28;20060;-57
2022/03/09 09:13:41;;;;;;;40.13;17.38;;;;;;;-1.33;59.15;100793.03;5024427;28;20057;-58
2022/03/09 09:16:12;;;;;;;30.65;12.68;;;;;;;-1.42;60.60;100802.94;5024180;28;20134;-58
2022/03/09 09:18:44;;;;;;;18.92;7.95;;;;;;;-1.55;62.21;100813.50;5024623;28;20152;-58
2022/03/09 09:21:16;;;;;;;11.00;6.05;;;;;;;-1.66;62.37;100818.19;5024854;28;20061;-54
2022/03/09 09:23:46;;;;;;;11.85;5.85;;;;;;;-1.81;63.05;100815.84;5024632;28;20993;-58
2022/03/09 09:26:18;;;;;;;9.98;5.25;;;;;;;-1.93;63.67;100828.13;5024434;28;20069;-52
2022/03/09 09:29:10;;;;;;;11.82;6.00;;;;;;;-2.04;64.61;100830.22;5023833;28;20045;-56
2022/03/09 09:31:41;;;;;;;14.15;6.10;;;;;;;-2.06;65.55;100828.41;5023020;28;20056;-53
2022/03/09 09:34:12;;;;;;;16.65;8.02;;;;;;;-2.02;65.73;100827.72;5024153;28;20070;-56
2022/03/09 09:36:46;;;;;;;15.85;7.72;;;;;;;-2.07;65.04;100829.22;5024722;28;20107;-55
2022/03/09 09:39:18;;;;;;;17.60;7.65;;;;;;;-2.12;65.51;100825.56;5023792;28;20071;-56
2022/03/09 09:41:53;;;;;;;16.83;6.90;;;;;;;-2.27;65.18;100826.69;5023857;28;20341;-55
2022/03/09 09:44:26;;;;;;;14.45;6.53;;;;;;;-2.47;65.12;100835.13;5023939;28;20115;-57
2022/03/09 09:46:57;;;;;;;14.57;6.53;;;;;;;-2.45;65.43;100836.06;5023975;28;20046;-56
2022/03/09 09:49:29;;;;;;;19.80;8.95;;;;;;;-2.48;65.30;100835.94;5024198;28;20343;-56
2022/03/09 09:52:00;;;;;;;26.92;10.95;;;;;;;-2.51;65.25;100840.94;5023364;28;20042;-58
2022/03/09 09:54:30;;;;;;;37.28;13.07;;;;;;;-2.59;65.30;100837.16;5023705;28;20060;-54
2022/03/09 09:57:02;;;;;;;39.25;14.27;;;;;;;-2.85;64.88;100794.19;5023943;28;20053;-55
2022/03/09 09:59:37;;;;;;;36.88;13.60;;;;;;;-2.69;65.11;100831.59;5023532;28;20253;-52
2022/03/09 10:02:08;;;;;;;29.67;11.38;;;;;;;-2.79;65.08;100834.53;5023850;28;20153;-55
2022/03/09 10:04:41;;;;;;;27.20;10.13;;;;;;;-2.91;65.53;100845.06;5023674;28;20073;-56
2022/03/09 10:07:12;;;;;;;18.98;7.82;;;;;;;-3.07;65.12;100842.56;5024310;28;20069;-54
2022/03/09 10:09:43;;;;;;;10.70;5.78;;;;;;;-3.47;65.16;100812.53;5023617;28;20236;-56
2022/03/09 10:12:15;;;;;;;15.38;6.15;;;;;;;-3.59;65.64;100840.94;5023832;28;20279;-54
2022/03/09 10:14:50;;;;;;;110.85;33.47;;;;;;;-3.71;65.98;100842.88;5023649;28;20339;-55
2022/03/09 10:17:22;;;;;;;173.85;54.30;;;;;;;-3.90;66.21;100849.59;5023346;28;20080;-54
2022/03/09 10:19:55;;;;;;;210.60;62.00;;;;;;;-4.56;66.90;100764.53;5023265;28;20046;-56
2022/03/09 10:22:32;;;;;;;283.95;81.95;;;;;;;-4.14;67.31;100849.22;5023535;28;20114;-52
2022/03/09 10:25:24;;;;;;;160.13;49.80;;;;;;;-4.31;67.31;100838.94;5023420;28;20045;-52
2022/03/09 10:27:56;;;;;;;115.20;39.05;;;;;;;-4.39;67.38;100849.59;5023514;28;20317;-55
2022/03/09 10:30:35;;;;;;;76.03;29.33;;;;;;;-4.58;66.99;100834.13;5024263;28;20076;-56
2022/03/09 10:33:07;;;;;;;55.80;20.42;;;;;;;-4.59;67.38;100847.66;5023454;28;20121;-53
2022/03/09 10:35:44;;;;;;;26.98;11.90;;;;;;;-4.75;67.23;100814.47;5023711;28;20088;-56
2022/03/09 10:38:30;;;;;;;22.70;10.95;;;;;;;-4.60;66.98;100844.22;5023692;28;20061;-54
2022/03/09 10:41:05;;;;;;;11.10;6.10;;;;;;;-4.56;66.88;100858.03;5023857;28;20041;-54
2022/03/09 10:43:36;;;;;;;12.88;5.50;;;;;;;-4.63;67.15;100838.97;5024427;28;20084;-54
2022/03/09 10:46:11;;;;;;;10.48;5.13;;;;;;;-4.60;66.91;100856.97;5026990;28;20069;-53
2022/03/09 10:49:06;;;;;;;10.43;5.65;;;;;;;-4.57;67.01;100858.81;5026789;28;20127;-54
2022/03/09 10:51:38;;;;;;;9.65;4.72;;;;;;;-4.73;66.85;100853.69;5013210;28;20355;-52
2022/03/09 10:54:16;;;;;;;9.55;5.03;;;;;;;-4.93;66.90;100844.94;5026110;28;20894;-54
2022/03/09 10:56:47;;;;;;;12.23;5.15;;;;;;;-5.04;67.11;100859.63;5026704;28;20108;-51
2022/03/09 10:59:20;;;;;;;13.43;5.47;;;;;;;-5.17;67.48;100864.84;5026675;28;20339;-53
2022/03/09 11:02:07;;;;;;;11.27;5.28;;;;;;;-5.44;68.05;100844.69;5026844;28;20060;-55
2022/03/09 11:04:40;;;;;;;13.63;5.70;;;;;;;-5.74;68.59;100824.31;5026662;28;20235;-54
2022/03/09 11:07:10;;;;;;;14.15;5.13;;;;;;;-5.75;68.89;100822.53;5027066;28;20058;-52
2022/03/09 11:09:46;;;;;;;10.25;5.25;;;;;;;-5.65;69.32;100870.63;5025902;28;20092;-51
2022/03/09 11:12:17;;;;;;;10.32;5.70;;;;;;;-5.71;69.48;100865.19;5026352;28;20129;-52
2022/03/09 11:14:48;;;;;;;8.40;5.10;;;;;;;-5.80;69.92;100874.84;5026738;28;20164;-55
2022/03/09 11:17:25;;;;;;;12.57;6.10;;;;;;;-5.95;70.35;100858.69;5026508;28;20055;-54
2022/03/09 11:19:56;;;;;;;8.60;5.53;;;;;;;-5.90;70.55;100880.16;5026974;28;20069;-53
2022/03/09 11:22:26;;;;;;;9.48;5.68;;;;;;;-5.92;71.00;100884.28;5026649;28;20120;-53
2022/03/09 11:24:57;;;;;;;9.38;6.28;;;;;;;-5.91;70.91;100886.94;5027066;28;20084;-54
2022/03/09 11:27:31;;;;;;;17.50;9.50;;;;;;;-5.89;71.15;100885.38;5026542;28;20105;-53
2022/03/09 11:30:31;;;;;;;18.00;10.77;;;;;;;-5.88;71.25;100887.09;5026242;28;20088;-53
2022/03/09 11:33:03;;;;;;;17.27;11.93;;;;;;;-5.87;70.92;100877.78;5026379;28;20044;-52
2022/03/09 11:35:36;;;;;;;18.60;11.88;;;;;;;-6.15;71.05;100835.50;5026184;28;20288;-55
2022/03/09 11:38:41;;;;;;;27.08;17.73;;;;;;;-5.94;70.85;100893.53;5026134;28;20081;-54
2022/03/09 11:41:21;;;;;;;17.42;11.27;;;;;;;-6.23;70.98;100872.31;5026597;28;20355;-56
2022/03/09 11:43:52;;;;;;;15.68;8.35;;;;;;;-6.29;71.71;100877.00;5025947;28;20120;-54
2022/03/09 11:46:23;;;;;;;11.75;6.40;;;;;;;-6.51;72.06;100855.38;5025897;28;20152;-52
2022/03/09 11:48:56;;;;;;;10.35;5.80;;;;;;;-6.37;72.21;100888.38;5025548;28;20351;-52